sensor_id;sensor_type;location;lat;lon;timestamp;P1;durP1;ratioP1;P2;durP2;ratioP2
61553;SDS011;47425;51.976;5.326;2022-12-18T13:46:44;3.95;;;2.60;;
61553;SDS011;47425;51.976;5.326;2022-12-18T13:51:43;3.78;;;2.50;;
61553;SDS011;47425;51.976;5.326;2022-12-18T13:56:47;3.42;;;2.90;;
61553;SDS011;47425;51.976;5.326;2022-12-18T13:59:21;4.35;;;2.42;;
61553;SDS011;47425;51.976;5.326;2022-12-18T14:01:50;3.92;;;3.05;;
61553;SDS011;47425;51.976;5.326;2022-12-18T14:06:49;3.75;;;2.58;;
61553;SDS011;47425;51.976;5.326;2022-12-18T14:09:18;4.60;;;2.80;;
61553;SDS011;47425;51.976;5.326;2022-12-18T14:11:49;4.57;;;2.92;;
61553;SDS011;47425;51.976;5.326;2022-12-18T14:14:16;7.35;;;3.00;;
61553;SDS011;47425;51.976;5.326;2022-12-18T14:16:42;3.95;;;2.90;;
61553;SDS011;47425;51.976;5.326;2022-12-18T14:19:10;8.52;;;2.97;;
61553;SDS011;47425;51.976;5.326;2022-12-18T14:21:47;6.15;;;3.63;;
61553;SDS011;47425;51.976;5.326;2022-12-18T14:24:19;4.57;;;3.03;;
61553;SDS011;47425;51.976;5.326;2022-12-18T14:26:47;5.40;;;3.80;;
61553;SDS011;47425;51.976;5.326;2022-12-18T14:32:03;4.78;;;3.65;;
61553;SDS011;47425;51.976;5.326;2022-12-18T14:34:35;4.85;;;3.78;;
61553;SDS011;47425;51.976;5.326;2022-12-18T14:37:00;4.97;;;3.92;;
61553;SDS011;47425;51.976;5.326;2022-12-18T14:39:26;5.40;;;3.45;;
61553;SDS011;47425;51.976;5.326;2022-12-18T14:41:51;4.63;;;3.60;;
61553;SDS011;47425;51.976;5.326;2022-12-18T14:44:17;4.35;;;3.50;;
61553;SDS011;47425;51.976;5.326;2022-12-18T14:46:43;4.97;;;3.83;;
61553;SDS011;47425;51.976;5.326;2022-12-18T14:49:23;6.35;;;4.13;;
61553;SDS011;47425;51.976;5.326;2022-12-18T14:52:24;8.27;;;4.45;;
61553;SDS011;47425;51.976;5.326;2022-12-18T14:54:50;7.20;;;4.30;;
61553;SDS011;47425;51.976;5.326;2022-12-18T14:57:22;6.15;;;4.45;;
61553;SDS011;47425;51.976;5.326;2022-12-18T14:59:52;5.95;;;4.40;;
61553;SDS011;47425;51.976;5.326;2022-12-18T15:04:46;5.60;;;3.80;;
61553;SDS011;47425;51.976;5.326;2022-12-18T15:12:32;6.82;;;4.93;;
61553;SDS011;47425;51.976;5.326;2022-12-18T15:25:59;8.75;;;4.50;;
61553;SDS011;47425;51.976;5.326;2022-12-18T15:33:44;7.18;;;4.15;;
61553;SDS011;47425;51.976;5.326;2022-12-18T15:36:29;4.93;;;4.10;;
61553;SDS011;47425;51.976;5.326;2022-12-18T15:41:23;9.37;;;4.37;;
61553;SDS011;47425;51.976;5.326;2022-12-18T15:43:50;6.80;;;4.20;;
61553;SDS011;47425;51.976;5.326;2022-12-18T15:46:23;5.53;;;3.78;;
61553;SDS011;47425;51.976;5.326;2022-12-18T15:48:51;11.43;;;4.38;;
61553;SDS011;47425;51.976;5.326;2022-12-18T15:51:22;6.18;;;4.20;;
61553;SDS011;47425;51.976;5.326;2022-12-18T15:53:51;9.15;;;4.25;;
61553;SDS011;47425;51.976;5.326;2022-12-18T15:56:19;7.03;;;4.45;;
61553;SDS011;47425;51.976;5.326;2022-12-18T15:59:09;7.10;;;4.53;;
61553;SDS011;47425;51.976;5.326;2022-12-18T16:01:40;5.93;;;4.22;;
61553;SDS011;47425;51.976;5.326;2022-12-18T16:04:08;8.43;;;4.50;;
61553;SDS011;47425;51.976;5.326;2022-12-18T16:06:36;14.38;;;5.75;;
61553;SDS011;47425;51.976;5.326;2022-12-18T16:09:03;13.27;;;6.35;;
61553;SDS011;47425;51.976;5.326;2022-12-18T16:11:29;18.00;;;7.63;;
61553;SDS011;47425;51.976;5.326;2022-12-18T16:14:17;23.23;;;8.00;;
61553;SDS011;47425;51.976;5.326;2022-12-18T16:16:45;19.33;;;8.38;;
61553;SDS011;47425;51.976;5.326;2022-12-18T16:19:12;17.42;;;8.20;;
61553;SDS011;47425;51.976;5.326;2022-12-18T16:21:38;16.52;;;7.50;;
61553;SDS011;47425;51.976;5.326;2022-12-18T16:24:04;14.88;;;8.25;;
61553;SDS011;47425;51.976;5.326;2022-12-18T16:26:32;14.73;;;7.43;;
61553;SDS011;47425;51.976;5.326;2022-12-18T16:28:57;15.00;;;7.60;;
61553;SDS011;47425;51.976;5.326;2022-12-18T16:31:23;13.05;;;7.30;;
61553;SDS011;47425;51.976;5.326;2022-12-18T16:33:48;13.95;;;7.50;;
61553;SDS011;47425;51.976;5.326;2022-12-18T16:36:14;13.48;;;7.47;;
61553;SDS011;47425;51.976;5.326;2022-12-18T16:38:39;12.25;;;7.43;;
61553;SDS011;47425;51.976;5.326;2022-12-18T16:41:14;14.07;;;7.57;;
61553;SDS011;47425;51.976;5.326;2022-12-18T16:43:59;16.67;;;7.18;;
61553;SDS011;47425;51.976;5.326;2022-12-18T16:46:25;13.48;;;7.45;;
61553;SDS011;47425;51.976;5.326;2022-12-18T16:48:51;11.77;;;7.57;;
61553;SDS011;47425;51.976;5.326;2022-12-18T16:51:16;12.05;;;7.07;;
61553;SDS011;47425;51.976;5.326;2022-12-18T16:53:43;12.23;;;7.15;;
61553;SDS011;47425;51.976;5.326;2022-12-18T16:56:08;12.90;;;7.03;;
61553;SDS011;47425;51.976;5.326;2022-12-18T16:58:33;12.88;;;7.00;;
61553;SDS011;47425;51.976;5.326;2022-12-18T17:01:00;14.13;;;7.07;;
61553;SDS011;47425;51.976;5.326;2022-12-18T17:03:26;9.77;;;6.72;;
61553;SDS011;47425;51.976;5.326;2022-12-18T17:05:51;10.65;;;7.05;;
61553;SDS011;47425;51.976;5.326;2022-12-18T17:08:17;11.20;;;7.20;;
61553;SDS011;47425;51.976;5.326;2022-12-18T17:10:43;11.30;;;6.63;;
61553;SDS011;47425;51.976;5.326;2022-12-18T17:13:09;11.88;;;7.35;;
61553;SDS011;47425;51.976;5.326;2022-12-18T17:15:35;11.68;;;6.95;;
61553;SDS011;47425;51.976;5.326;2022-12-18T17:18:02;11.40;;;7.13;;
61553;SDS011;47425;51.976;5.326;2022-12-18T17:20:29;10.60;;;7.20;;
61553;SDS011;47425;51.976;5.326;2022-12-18T17:22:57;14.38;;;7.72;;
61553;SDS011;47425;51.976;5.326;2022-12-18T17:25:23;11.18;;;6.72;;
61553;SDS011;47425;51.976;5.326;2022-12-18T17:27:49;24.33;;;7.50;;
61553;SDS011;47425;51.976;5.326;2022-12-18T17:30:15;17.00;;;7.85;;
61553;SDS011;47425;51.976;5.326;2022-12-18T17:32:40;12.43;;;7.85;;
61553;SDS011;47425;51.976;5.326;2022-12-18T17:35:07;19.02;;;9.23;;
61553;SDS011;47425;51.976;5.326;2022-12-18T17:37:33;15.00;;;8.50;;
61553;SDS011;47425;51.976;5.326;2022-12-18T17:42:19;17.52;;;9.25;;
61553;SDS011;47425;51.976;5.326;2022-12-18T17:44:45;11.93;;;8.27;;
61553;SDS011;47425;51.976;5.326;2022-12-18T17:47:12;15.40;;;9.05;;
61553;SDS011;47425;51.976;5.326;2022-12-18T17:49:39;12.13;;;8.25;;
61553;SDS011;47425;51.976;5.326;2022-12-18T17:52:06;11.40;;;7.85;;
61553;SDS011;47425;51.976;5.326;2022-12-18T17:54:47;13.18;;;8.88;;
61553;SDS011;47425;51.976;5.326;2022-12-18T17:57:14;15.60;;;8.90;;
61553;SDS011;47425;51.976;5.326;2022-12-18T17:59:41;13.43;;;8.30;;
61553;SDS011;47425;51.976;5.326;2022-12-18T18:02:09;9.40;;;7.60;;
61553;SDS011;47425;51.976;5.326;2022-12-18T18:04:36;13.23;;;7.53;;
61553;SDS011;47425;51.976;5.326;2022-12-18T18:07:03;12.52;;;8.30;;
61553;SDS011;47425;51.976;5.326;2022-12-18T18:09:29;12.32;;;7.90;;
61553;SDS011;47425;51.976;5.326;2022-12-18T18:11:56;10.43;;;7.78;;
61553;SDS011;47425;51.976;5.326;2022-12-18T18:14:42;11.25;;;7.15;;
61553;SDS011;47425;51.976;5.326;2022-12-18T18:17:09;10.73;;;7.20;;
61553;SDS011;47425;51.976;5.326;2022-12-18T18:19:36;10.32;;;7.20;;
61553;SDS011;47425;51.976;5.326;2022-12-18T18:22:04;11.50;;;7.40;;
61553;SDS011;47425;51.976;5.326;2022-12-18T18:24:30;10.43;;;6.93;;
61553;SDS011;47425;51.976;5.326;2022-12-18T18:26:58;11.73;;;7.72;;
61553;SDS011;47425;51.976;5.326;2022-12-18T18:29:25;12.23;;;7.22;;
61553;SDS011;47425;51.976;5.326;2022-12-18T18:31:55;9.45;;;6.60;;
61553;SDS011;47425;51.976;5.326;2022-12-18T18:34:25;9.63;;;6.63;;
61553;SDS011;47425;51.976;5.326;2022-12-18T18:36:53;11.82;;;7.18;;
61553;SDS011;47425;51.976;5.326;2022-12-18T18:39:22;9.98;;;6.63;;
61553;SDS011;47425;51.976;5.326;2022-12-18T18:41:50;8.93;;;6.60;;
61553;SDS011;47425;51.976;5.326;2022-12-18T18:44:17;9.90;;;6.80;;
61553;SDS011;47425;51.976;5.326;2022-12-18T18:47:02;7.10;;;6.22;;
61553;SDS011;47425;51.976;5.326;2022-12-18T18:49:28;10.63;;;6.57;;
61553;SDS011;47425;51.976;5.326;2022-12-18T18:51:56;7.90;;;6.05;;
61553;SDS011;47425;51.976;5.326;2022-12-18T18:54:23;9.43;;;6.85;;
61553;SDS011;47425;51.976;5.326;2022-12-18T18:56:51;9.48;;;6.30;;
61553;SDS011;47425;51.976;5.326;2022-12-18T18:59:17;8.82;;;6.40;;
61553;SDS011;47425;51.976;5.326;2022-12-18T19:01:44;9.45;;;6.50;;
61553;SDS011;47425;51.976;5.326;2022-12-18T19:04:12;7.95;;;6.45;;
61553;SDS011;47425;51.976;5.326;2022-12-18T19:06:38;9.57;;;6.45;;
61553;SDS011;47425;51.976;5.326;2022-12-18T19:09:06;7.43;;;5.83;;
61553;SDS011;47425;51.976;5.326;2022-12-18T19:11:33;10.48;;;6.28;;
61553;SDS011;47425;51.976;5.326;2022-12-18T19:14:17;9.23;;;6.28;;
61553;SDS011;47425;51.976;5.326;2022-12-18T19:16:44;7.75;;;6.10;;
61553;SDS011;47425;51.976;5.326;2022-12-18T19:19:12;9.25;;;5.80;;
61553;SDS011;47425;51.976;5.326;2022-12-18T19:21:42;10.18;;;5.50;;
61553;SDS011;47425;51.976;5.326;2022-12-18T19:24:09;7.07;;;5.60;;
61553;SDS011;47425;51.976;5.326;2022-12-18T19:26:36;8.43;;;6.25;;
61553;SDS011;47425;51.976;5.326;2022-12-18T19:29:03;7.97;;;5.78;;
61553;SDS011;47425;51.976;5.326;2022-12-18T19:31:33;7.85;;;5.60;;
61553;SDS011;47425;51.976;5.326;2022-12-18T19:33:59;10.02;;;5.82;;
61553;SDS011;47425;51.976;5.326;2022-12-18T19:36:28;8.20;;;5.75;;
61553;SDS011;47425;51.976;5.326;2022-12-18T19:39:16;7.90;;;5.95;;
61553;SDS011;47425;51.976;5.326;2022-12-18T19:41:45;8.52;;;5.43;;
61553;SDS011;47425;51.976;5.326;2022-12-18T19:44:13;8.23;;;5.85;;
61553;SDS011;47425;51.976;5.326;2022-12-18T19:46:41;8.35;;;6.38;;
61553;SDS011;47425;51.976;5.326;2022-12-18T19:49:11;7.88;;;6.00;;
61553;SDS011;47425;51.976;5.326;2022-12-18T19:51:40;7.60;;;5.72;;
61553;SDS011;47425;51.976;5.326;2022-12-18T19:54:06;7.17;;;5.53;;
61553;SDS011;47425;51.976;5.326;2022-12-18T19:56:33;6.90;;;5.57;;
61553;SDS011;47425;51.976;5.326;2022-12-18T19:59:01;6.38;;;5.10;;
61553;SDS011;47425;51.976;5.326;2022-12-18T20:03:56;6.93;;;5.78;;
61553;SDS011;47425;51.976;5.326;2022-12-18T20:06:24;7.55;;;5.25;;
61553;SDS011;47425;51.976;5.326;2022-12-18T20:08:53;8.38;;;5.88;;
61553;SDS011;47425;51.976;5.326;2022-12-18T20:11:22;6.35;;;5.50;;
61553;SDS011;47425;51.976;5.326;2022-12-18T20:13:49;7.73;;;5.83;;
61553;SDS011;47425;51.976;5.326;2022-12-18T20:16:16;7.72;;;5.78;;
61553;SDS011;47425;51.976;5.326;2022-12-18T20:18:43;8.98;;;5.78;;
61553;SDS011;47425;51.976;5.326;2022-12-18T20:21:09;7.70;;;6.15;;
61553;SDS011;47425;51.976;5.326;2022-12-18T20:23:36;7.53;;;5.88;;
61553;SDS011;47425;51.976;5.326;2022-12-18T20:26:04;7.10;;;5.47;;
61553;SDS011;47425;51.976;5.326;2022-12-18T20:28:31;6.72;;;5.68;;
61553;SDS011;47425;51.976;5.326;2022-12-18T20:30:57;7.13;;;5.45;;
61553;SDS011;47425;51.976;5.326;2022-12-18T20:33:25;8.70;;;5.47;;
61553;SDS011;47425;51.976;5.326;2022-12-18T20:35:52;5.95;;;5.35;;
61553;SDS011;47425;51.976;5.326;2022-12-18T20:38:18;9.60;;;5.90;;
61553;SDS011;47425;51.976;5.326;2022-12-18T20:40:45;11.52;;;6.97;;
61553;SDS011;47425;51.976;5.326;2022-12-18T20:43:14;10.93;;;6.70;;
61553;SDS011;47425;51.976;5.326;2022-12-18T20:45:40;9.60;;;6.90;;
61553;SDS011;47425;51.976;5.326;2022-12-18T20:48:07;12.05;;;7.07;;
61553;SDS011;47425;51.976;5.326;2022-12-18T20:50:33;11.60;;;6.82;;
61553;SDS011;47425;51.976;5.326;2022-12-18T20:53:01;12.30;;;6.78;;
61553;SDS011;47425;51.976;5.326;2022-12-18T20:55:28;12.27;;;7.43;;
61553;SDS011;47425;51.976;5.326;2022-12-18T20:57:55;9.48;;;6.68;;
61553;SDS011;47425;51.976;5.326;2022-12-18T21:03:05;11.30;;;6.72;;
61553;SDS011;47425;51.976;5.326;2022-12-18T21:05:31;11.98;;;6.57;;
61553;SDS011;47425;51.976;5.326;2022-12-18T21:07:58;8.82;;;6.30;;
61553;SDS011;47425;51.976;5.326;2022-12-18T21:10:24;10.07;;;6.40;;
61553;SDS011;47425;51.976;5.326;2022-12-18T21:12:51;12.88;;;6.53;;
61553;SDS011;47425;51.976;5.326;2022-12-18T21:15:17;9.75;;;6.45;;
61553;SDS011;47425;51.976;5.326;2022-12-18T21:17:45;10.30;;;6.88;;
61553;SDS011;47425;51.976;5.326;2022-12-18T21:20:12;10.13;;;6.57;;
61553;SDS011;47425;51.976;5.326;2022-12-18T21:22:38;8.40;;;6.15;;
61553;SDS011;47425;51.976;5.326;2022-12-18T21:25:05;13.77;;;6.97;;
61553;SDS011;47425;51.976;5.326;2022-12-18T21:27:33;11.75;;;6.35;;
61553;SDS011;47425;51.976;5.326;2022-12-18T21:30:00;11.18;;;6.53;;
61553;SDS011;47425;51.976;5.326;2022-12-18T21:32:27;11.63;;;6.60;;
61553;SDS011;47425;51.976;5.326;2022-12-18T21:34:55;9.02;;;6.22;;
61553;SDS011;47425;51.976;5.326;2022-12-18T21:37:21;11.15;;;6.15;;
61553;SDS011;47425;51.976;5.326;2022-12-18T21:39:48;9.77;;;6.32;;
61553;SDS011;47425;51.976;5.326;2022-12-18T21:42:15;9.05;;;6.03;;
61553;SDS011;47425;51.976;5.326;2022-12-18T21:44:59;7.82;;;5.82;;
61553;SDS011;47425;51.976;5.326;2022-12-18T21:47:25;10.57;;;5.88;;
61553;SDS011;47425;51.976;5.326;2022-12-18T21:49:52;10.45;;;6.60;;
61553;SDS011;47425;51.976;5.326;2022-12-18T21:52:20;9.48;;;6.55;;
61553;SDS011;47425;51.976;5.326;2022-12-18T21:54:47;10.60;;;7.00;;
61553;SDS011;47425;51.976;5.326;2022-12-18T21:57:14;8.10;;;6.75;;
61553;SDS011;47425;51.976;5.326;2022-12-18T21:59:41;10.10;;;6.40;;
61553;SDS011;47425;51.976;5.326;2022-12-18T22:02:09;8.93;;;6.13;;
61553;SDS011;47425;51.976;5.326;2022-12-18T22:04:37;8.70;;;6.07;;
61553;SDS011;47425;51.976;5.326;2022-12-18T22:07:04;9.80;;;6.65;;
61553;SDS011;47425;51.976;5.326;2022-12-18T22:09:32;9.95;;;6.40;;
61553;SDS011;47425;51.976;5.326;2022-12-18T22:11:59;7.32;;;6.05;;
61553;SDS011;47425;51.976;5.326;2022-12-18T22:14:26;9.75;;;6.40;;
61553;SDS011;47425;51.976;5.326;2022-12-18T22:16:52;8.90;;;6.38;;
61553;SDS011;47425;51.976;5.326;2022-12-18T22:19:20;8.68;;;6.35;;
61553;SDS011;47425;51.976;5.326;2022-12-18T22:21:47;10.18;;;5.90;;
61553;SDS011;47425;51.976;5.326;2022-12-18T22:24:15;6.93;;;5.88;;
61553;SDS011;47425;51.976;5.326;2022-12-18T22:26:44;8.55;;;6.07;;
61553;SDS011;47425;51.976;5.326;2022-12-18T22:29:12;8.32;;;6.28;;
61553;SDS011;47425;51.976;5.326;2022-12-18T22:32:00;8.73;;;6.10;;
61553;SDS011;47425;51.976;5.326;2022-12-18T22:34:30;10.02;;;6.55;;
61553;SDS011;47425;51.976;5.326;2022-12-18T22:36:57;7.43;;;6.13;;
61553;SDS011;47425;51.976;5.326;2022-12-18T22:39:25;7.93;;;6.28;;
61553;SDS011;47425;51.976;5.326;2022-12-18T22:41:53;9.90;;;6.85;;
61553;SDS011;47425;51.976;5.326;2022-12-18T22:44:20;9.07;;;6.32;;
61553;SDS011;47425;51.976;5.326;2022-12-18T22:46:47;8.38;;;5.95;;
61553;SDS011;47425;51.976;5.326;2022-12-18T22:49:17;7.63;;;6.00;;
61553;SDS011;47425;51.976;5.326;2022-12-18T22:54:12;8.80;;;6.93;;
61553;SDS011;47425;51.976;5.326;2022-12-18T22:56:39;7.53;;;5.65;;
61553;SDS011;47425;51.976;5.326;2022-12-18T22:59:09;7.90;;;6.00;;
61553;SDS011;47425;51.976;5.326;2022-12-18T23:01:42;7.57;;;5.85;;
61553;SDS011;47425;51.976;5.326;2022-12-18T23:04:09;8.52;;;5.90;;
61553;SDS011;47425;51.976;5.326;2022-12-18T23:06:52;7.38;;;6.05;;
61553;SDS011;47425;51.976;5.326;2022-12-18T23:09:20;10.03;;;6.40;;
61553;SDS011;47425;51.976;5.326;2022-12-18T23:11:47;8.75;;;6.18;;
61553;SDS011;47425;51.976;5.326;2022-12-18T23:14:15;8.52;;;6.30;;
61553;SDS011;47425;51.976;5.326;2022-12-18T23:16:42;9.60;;;6.70;;
61553;SDS011;47425;51.976;5.326;2022-12-18T23:19:10;8.60;;;6.82;;
61553;SDS011;47425;51.976;5.326;2022-12-18T23:21:37;7.57;;;6.50;;
61553;SDS011;47425;51.976;5.326;2022-12-18T23:24:03;7.07;;;5.72;;
61553;SDS011;47425;51.976;5.326;2022-12-18T23:26:31;7.10;;;6.03;;
61553;SDS011;47425;51.976;5.326;2022-12-18T23:28:57;7.85;;;6.13;;
61553;SDS011;47425;51.976;5.326;2022-12-18T23:31:27;8.23;;;6.40;;
61553;SDS011;47425;51.976;5.326;2022-12-18T23:33:56;8.20;;;6.18;;
61553;SDS011;47425;51.976;5.326;2022-12-18T23:36:25;8.25;;;6.13;;
61553;SDS011;47425;51.976;5.326;2022-12-18T23:38:53;7.30;;;6.07;;
61553;SDS011;47425;51.976;5.326;2022-12-18T23:41:22;7.10;;;6.15;;
61553;SDS011;47425;51.976;5.326;2022-12-18T23:43:52;8.00;;;6.22;;
61553;SDS011;47425;51.976;5.326;2022-12-18T23:46:19;9.25;;;6.63;;
61553;SDS011;47425;51.976;5.326;2022-12-18T23:48:49;7.93;;;6.30;;
61553;SDS011;47425;51.976;5.326;2022-12-18T23:51:16;11.18;;;6.55;;
61553;SDS011;47425;51.976;5.326;2022-12-18T23:53:45;8.60;;;6.50;;
61553;SDS011;47425;51.976;5.326;2022-12-18T23:56:12;7.63;;;6.15;;
61553;SDS011;47425;51.976;5.326;2022-12-18T23:58:39;8.30;;;6.35;;
